Time;durP1;ratioP1;P1;durP2;ratioP2;P2;SDS_P1;SDS_P2;PMS_P1;PMS_P2;Temp;Humidity;BMP_temperature;BMP_pressure;BME280_temperature;BME280_humidity;BME280_pressure;Samples;Min_cycle;Max_cycle;Signal;HPM_P1;HPM_P2
2021/04/01 00:02:27;;;;;;;42.20;30.52;;;;;;;11.25;80.33;100746.25;1796830;78;20950;-53
2021/04/01 00:04:55;;;;;;;43.55;30.70;;;;;;;11.24;80.36;100743.21;1783153;80;21189;-52
2021/04/01 00:07:26;;;;;;;45.43;30.27;;;;;;;11.22;80.32;100728.92;1782867;79;21025;-52
2021/04/01 00:10:00;;;;;;;44.75;32.58;;;;;;;11.21;80.36;100728.07;1783029;80;21045;-52
2021/04/01 00:12:30;;;;;;;44.67;29.90;;;;;;;11.20;80.45;100722.84;1783032;80;21037;-53
2021/04/01 00:15:05;;;;;;;38.75;31.60;;;;;;;11.18;80.49;100718.19;1783176;80;21037;-52
2021/04/01 00:17:36;;;;;;;40.78;31.52;;;;;;;11.16;80.53;100714.33;1783309;80;21179;-52
2021/04/01 00:20:11;;;;;;;42.30;30.82;;;;;;;11.16;80.57;100710.73;1783483;80;20990;-52
2021/04/01 00:22:43;;;;;;;50.50;31.73;;;;;;;11.15;80.58;100714.05;1783024;80;21009;-52
2021/04/01 00:25:13;;;;;;;38.50;29.50;;;;;;;11.15;80.60;100711.85;1783141;80;21587;-53
2021/04/01 00:27:41;;;;;;;40.60;31.65;;;;;;;11.13;80.66;100702.50;1783387;80;20942;-53
2021/04/01 00:30:15;;;;;;;48.48;31.65;;;;;;;11.11;80.65;100699.19;1782995;80;21145;-53
2021/04/01 00:32:44;;;;;;;40.08;28.02;;;;;;;11.09;80.61;100706.04;1783244;80;21032;-52
2021/04/01 00:35:13;;;;;;;43.40;30.97;;;;;;;11.04;80.62;100704.11;1783336;80;21057;-52
2021/04/01 00:37:43;;;;;;;43.30;31.20;;;;;;;11.00;80.70;100702.98;1783011;80;21028;-53
2021/04/01 00:40:15;;;;;;;42.40;30.70;;;;;;;10.98;80.79;100701.89;1783007;80;21045;-53
2021/04/01 00:42:46;;;;;;;38.92;30.00;;;;;;;10.96;80.86;100697.75;1783504;79;21254;-53
2021/04/01 00:45:14;;;;;;;43.58;29.15;;;;;;;10.91;80.83;100690.32;1783245;80;20990;-52
2021/04/01 00:47:53;;;;;;;40.00;30.43;;;;;;;10.88;80.88;100680.69;1783129;80;21029;-52
2021/04/01 00:50:29;;;;;;;37.78;29.55;;;;;;;10.87;81.06;100679.58;1783078;80;21021;-52
2021/04/01 00:53:06;;;;;;;39.18;30.00;;;;;;;10.85;81.19;100679.04;1783129;80;21040;-53
2021/04/01 00:55:37;;;;;;;43.70;29.60;;;;;;;10.82;81.13;100680.95;1782813;80;22001;-52
2021/04/01 00:58:05;;;;;;;41.37;30.82;;;;;;;10.77;81.18;100673.49;1785214;79;21615;-52
2021/04/01 01:00:40;;;;;;;42.05;27.75;;;;;;;10.76;81.29;100675.14;1797905;79;21041;-52
2021/04/01 01:03:14;;;;;;;43.35;30.70;;;;;;;10.74;81.40;100671.84;1797736;78;21005;-52
2021/04/01 01:05:54;;;;;;;43.08;30.75;;;;;;;10.78;81.53;100669.66;1813726;79;22683;-53
2021/04/01 01:08:25;;;;;;;43.90;30.55;;;;;;;10.72;81.55;100666.06;1786800;80;20978;-52
2021/04/01 01:10:55;;;;;;;42.13;28.70;;;;;;;10.70;81.57;100666.89;1786880;80;22079;-51
2021/04/01 01:13:27;;;;;;;37.28;28.05;;;;;;;10.68;81.58;100662.20;1786252;80;21034;-53
2021/04/01 01:15:56;;;;;;;38.45;28.07;;;;;;;10.67;81.66;100660.57;1756986;80;21061;-53
2021/04/01 01:18:31;;;;;;;38.73;27.32;;;;;;;10.69;81.70;100656.99;1786218;80;21612;-53
2021/04/01 01:21:00;;;;;;;38.70;28.62;;;;;;;10.70;81.61;100664.15;1786202;80;21037;-53
2021/04/01 01:23:29;;;;;;;46.23;30.65;;;;;;;10.72;81.55;100660.58;1786529;80;21136;-54
2021/04/01 01:26:02;;;;;;;43.00;30.65;;;;;;;10.73;81.48;100661.39;1786932;80;21632;-54
2021/04/01 01:28:30;;;;;;;43.55;31.82;;;;;;;10.75;81.44;100659.77;1786627;80;21065;-53
2021/04/01 01:31:05;;;;;;;43.83;29.80;;;;;;;10.76;81.39;100656.75;1756043;80;21639;-51
2021/04/01 01:33:40;;;;;;;43.05;29.77;;;;;;;10.77;81.32;100650.70;1786491;80;21049;-54
2021/04/01 01:36:05;;;;;;;41.83;29.85;;;;;;;10.75;81.30;100651.53;1785560;80;21199;-52
2021/04/01 01:38:36;;;;;;;40.60;27.73;;;;;;;10.72;81.31;100648.20;1786479;80;22152;-52
2021/04/01 01:41:07;;;;;;;44.25;31.27;;;;;;;10.70;81.31;100649.04;1786074;80;21073;-52
2021/04/01 01:43:37;;;;;;;41.00;29.05;;;;;;;10.65;81.39;100646.26;1786282;80;21053;-52
2021/04/01 01:46:09;;;;;;;43.02;30.23;;;;;;;10.61;81.40;100647.89;1786476;80;21188;-51
2021/04/01 01:48:44;;;;;;;44.98;31.20;;;;;;;10.62;81.54;100642.68;1845405;76;22726;-52
2021/04/01 01:51:16;;;;;;;44.18;30.85;;;;;;;10.54;81.62;100641.81;1814745;79;20994;-53
2021/04/01 01:53:48;;;;;;;45.85;31.60;;;;;;;10.51;81.81;100632.19;1815166;78;21013;-52
2021/04/01 01:56:23;;;;;;;44.45;30.97;;;;;;;10.48;81.88;100636.84;1815011;79;21082;-52
2021/04/01 01:58:57;;;;;;;46.00;32.00;;;;;;;10.45;82.00;100631.08;1814970;79;21021;-53
2021/04/01 02:01:24;;;;;;;45.00;30.40;;;;;;;10.43;82.11;100629.12;1807995;78;20986;-53
2021/04/01 02:03:58;;;;;;;46.98;32.75;;;;;;;10.41;82.18;100620.34;1777794;80;21065;-52
2021/04/01 02:06:27;;;;;;;48.30;31.95;;;;;;;10.37;82.22;100626.38;1782923;80;21207;-53
2021/04/01 02:08:59;;;;;;;43.15;30.72;;;;;;;10.33;82.18;100620.26;1783588;80;21646;-52
2021/04/01 02:11:36;;;;;;;44.75;32.15;;;;;;;10.30;82.45;100623.02;1783520;79;21587;-52
2021/04/01 02:14:08;;;;;;;44.53;33.13;;;;;;;10.28;82.48;100616.95;1783441;80;21049;-53
2021/04/01 02:16:40;;;;;;;42.45;30.72;;;;;;;10.28;82.51;100614.77;1783095;80;20994;-52
2021/04/01 02:19:08;;;;;;;39.98;30.30;;;;;;;10.27;82.50;100618.59;1782924;80;21441;-53
2021/04/01 02:21:40;;;;;;;39.88;29.77;;;;;;;10.27;82.49;100615.29;1783019;80;21036;-53
2021/04/01 02:24:08;;;;;;;44.98;31.52;;;;;;;10.25;82.44;100617.48;1783172;80;21061;-52
2021/04/01 02:26:37;;;;;;;40.90;30.43;;;;;;;10.26;82.62;100615.03;1783308;80;21606;-52
2021/04/01 02:29:05;;;;;;;42.30;30.37;;;;;;;10.28;82.59;100612.83;1783271;80;21033;-52
2021/04/01 02:31:32;;;;;;;42.13;30.10;;;;;;;10.28;82.56;100607.34;1783010;80;21205;-52
2021/04/01 02:34:06;;;;;;;45.40;28.87;;;;;;;10.29;82.47;100600.77;1783351;79;21021;-52
2021/04/01 02:36:39;;;;;;;42.48;29.30;;;;;;;10.31;82.43;100615.03;1781680;80;21037;-53
2021/04/01 02:39:09;;;;;;;41.25;28.85;;;;;;;10.32;82.33;100609.83;1783127;80;21049;-53
2021/04/01 02:41:46;;;;;;;42.85;30.32;;;;;;;10.31;82.29;100610.92;1782973;80;21030;-53
2021/04/01 02:44:15;;;;;;;41.33;27.95;;;;;;;10.31;82.29;100609.55;1781886;80;21467;-53
2021/04/01 02:46:47;;;;;;;41.10;28.70;;;;;;;10.32;82.27;100616.70;1783125;79;21084;-51
2021/04/01 02:49:14;;;;;;;40.20;27.67;;;;;;;10.33;82.18;100616.14;1797579;79;21009;-52
2021/04/01 02:51:44;;;;;;;44.53;28.77;;;;;;;10.34;82.11;100609.59;1797629;79;22131;-52
2021/04/01 02:54:12;;;;;;;43.48;29.95;;;;;;;10.36;82.05;100614.29;1798038;79;21670;-52
2021/04/01 02:56:40;;;;;;;38.63;28.92;;;;;;;10.40;81.98;100615.94;1797677;79;21858;-52
2021/04/01 02:59:10;;;;;;;46.23;30.68;;;;;;;10.40;81.83;100607.70;1797162;79;21674;-53
2021/04/01 03:01:38;;;;;;;38.63;29.32;;;;;;;10.38;81.73;100603.30;1797085;78;21428;-52
2021/04/01 03:04:08;;;;;;;44.85;29.67;;;;;;;10.37;81.71;100598.08;1796793;79;21299;-52
2021/04/01 03:06:37;;;;;;;43.70;32.10;;;;;;;10.34;81.69;100596.69;1796725;79;21406;-52
2021/04/01 03:09:07;;;;;;;49.93;31.25;;;;;;;10.32;81.71;100596.11;1796750;79;22583;-53
2021/04/01 03:11:36;;;;;;;47.75;33.35;;;;;;;10.28;81.69;100592.80;1796779;79;21075;-52
2021/04/01 03:14:09;;;;;;;44.10;33.13;;;;;;;10.24;81.72;100595.23;1797205;79;21044;-52
2021/04/01 03:16:37;;;;;;;47.85;32.93;;;;;;;10.20;81.72;100592.73;1797513;79;20981;-52
2021/04/01 03:19:06;;;;;;;50.28;35.10;;;;;;;10.16;81.79;100589.72;1797073;79;21017;-52
2021/04/01 03:21:38;;;;;;;49.08;33.53;;;;;;;10.12;81.86;100587.78;1796809;79;21450;-53
2021/04/01 03:24:08;;;;;;;47.27;33.02;;;;;;;10.09;81.95;100582.80;1796898;79;21052;-52
2021/04/01 03:26:41;;;;;;;40.80;31.90;;;;;;;10.06;81.95;100582.81;1797167;79;21104;-53
2021/04/01 03:29:15;;;;;;;42.75;32.17;;;;;;;10.04;82.00;100578.11;1796911;79;21033;-51
2021/04/01 03:31:43;;;;;;;49.53;33.83;;;;;;;10.01;82.03;100584.95;1796765;79;21072;-52
2021/04/01 03:34:11;;;;;;;43.45;31.35;;;;;;;9.99;82.06;100589.90;1797314;79;21187;-53
2021/04/01 03:36:51;;;;;;;40.23;31.20;;;;;;;9.97;82.07;100583.86;1797035;79;21045;-51
2021/04/01 03:39:16;;;;;;;48.35;32.55;;;;;;;9.96;82.12;100583.58;1796627;79;22144;-51
2021/04/01 03:41:45;;;;;;;41.63;31.90;;;;;;;9.94;82.13;100584.37;1797194;79;21048;-51
2021/04/01 03:44:16;;;;;;;48.68;34.95;;;;;;;9.93;82.17;100586.01;1797073;79;21060;-52
2021/04/01 03:46:45;;;;;;;52.30;36.40;;;;;;;9.91;82.21;100585.46;1796172;79;21470;-52
2021/04/01 03:49:21;;;;;;;53.48;36.53;;;;;;;9.91;82.26;100577.23;1781724;80;21076;-52
2021/04/01 03:51:53;;;;;;;47.50;34.13;;;;;;;9.88;82.28;100585.44;1782673;80;21620;-52
2021/04/01 03:54:24;;;;;;;52.98;34.27;;;;;;;9.83;82.35;100583.50;1782635;80;21045;-52
2021/04/01 03:56:52;;;;;;;50.40;36.40;;;;;;;9.82;82.51;100583.20;1782926;80;21604;-52
2021/04/01 03:59:24;;;;;;;47.17;35.45;;;;;;;9.82;82.50;100572.79;1782614;80;21372;-52
2021/04/01 04:02:08;;;;;;;47.53;35.58;;;;;;;9.81;82.59;100573.31;1782199;79;21041;-52
2021/04/01 04:04:57;;;;;;;64.35;35.70;;;;;;;9.82;82.61;100573.60;1780861;80;21600;-52
2021/04/01 04:10:14;;;;;;;52.40;35.38;;;;;;;9.82;82.56;100564.56;1782539;80;21037;-52
2021/04/01 04:12:57;;;;;;;49.27;34.73;;;;;;;9.84;82.56;100565.11;1781229;80;21471;-52
2021/04/01 04:15:23;;;;;;;49.00;33.53;;;;;;;9.86;82.46;100560.20;1781431;80;21005;-53
2021/04/01 04:18:01;;;;;;;49.70;35.70;;;;;;;9.87;82.41;100560.45;1782300;80;21057;-52
2021/04/01 04:20:32;;;;;;;48.60;34.65;;;;;;;9.89;82.38;100563.78;1782277;80;20978;-54
2021/04/01 04:23:12;;;;;;;44.10;32.53;;;;;;;9.96;82.34;100552.55;1887765;76;22600;-52
2021/04/01 04:25:40;;;;;;;46.80;35.45;;;;;;;9.95;82.24;100556.41;1858266;77;20973;-53
2021/04/01 04:28:27;;;;;;;56.65;36.88;;;;;;;9.96;82.14;100552.02;1820481;78;21138;-53
2021/04/01 04:30:50;;;;;;;48.25;34.95;;;;;;;9.97;82.02;100550.94;1787373;80;21037;-52
2021/04/01 04:33:20;;;;;;;53.58;34.73;;;;;;;10.01;81.94;100557.52;1820062;78;21043;-52
2021/04/01 04:35:51;;;;;;;49.58;34.88;;;;;;;10.02;81.86;100552.31;1820046;78;21156;-52
2021/04/01 04:38:26;;;;;;;48.35;34.30;;;;;;;10.06;81.77;100548.51;1820283;78;21011;-53
2021/04/01 04:40:56;;;;;;;46.28;33.38;;;;;;;10.10;81.69;100544.66;1820728;78;21187;-52
2021/04/01 04:43:29;;;;;;;48.10;33.40;;;;;;;10.13;81.58;100543.59;1820291;78;21590;-52
2021/04/01 04:45:58;;;;;;;47.73;33.42;;;;;;;10.18;81.45;100538.67;1820319;78;21023;-52
2021/04/01 04:48:27;;;;;;;49.08;36.60;;;;;;;10.23;81.27;100536.48;1820191;78;21625;-52
2021/04/01 04:50:55;;;;;;;56.60;34.60;;;;;;;10.25;81.14;100535.13;1820257;78;21023;-53
2021/04/01 04:53:24;;;;;;;52.17;34.18;;;;;;;10.32;80.93;100530.21;1820330;78;21285;-53
2021/04/01 04:56:12;;;;;;;42.93;33.40;;;;;;;10.35;80.75;100535.19;1819711;78;21662;-53
2021/04/01 04:58:51;;;;;;;43.25;31.75;;;;;;;10.43;80.59;100542.10;1819828;78;21023;-53
2021/04/01 05:09:16;;;;;;;48.38;32.60;;;;;;;10.74;79.56;100514.69;1814480;78;20157;-53
2021/04/01 05:11:48;;;;;;;46.37;35.05;;;;;;;10.80;79.36;100519.64;1782053;80;21127;-52
2021/04/01 05:14:15;;;;;;;48.42;33.73;;;;;;;10.87;79.02;100515.55;1782077;80;21061;-53
2021/04/01 05:16:43;;;;;;;49.50;34.58;;;;;;;10.95;78.75;100517.48;1782033;80;21047;-53
2021/04/01 05:19:12;;;;;;;47.62;34.23;;;;;;;11.01;78.43;100496.58;1782027;80;22558;-52
2021/04/01 05:21:49;;;;;;;48.28;34.58;;;;;;;11.08;78.05;100519.67;1781739;80;21493;-54
2021/04/01 05:24:26;;;;;;;46.65;32.08;;;;;;;11.20;77.98;100509.24;1845073;75;22727;-52
2021/04/01 05:27:08;;;;;;;45.17;33.18;;;;;;;11.22;77.76;100515.28;1815359;79;21675;-53
2021/04/01 05:29:32;;;;;;;47.90;32.23;;;;;;;11.31;77.44;100511.42;1813256;79;21163;-53
2021/04/01 05:32:05;;;;;;;46.25;31.70;;;;;;;11.40;77.02;100516.65;1815088;78;21021;-53
2021/04/01 05:34:37;;;;;;;41.70;28.85;;;;;;;11.45;76.80;100512.25;1815190;78;21254;-53
2021/04/01 05:37:10;;;;;;;50.63;32.40;;;;;;;11.52;76.61;100516.91;1815313;79;21029;-53
2021/04/01 05:39:41;;;;;;;39.48;29.20;;;;;;;11.58;76.29;100519.36;1815295;78;21022;-53
2021/04/01 05:42:10;;;;;;;48.30;32.33;;;;;;;11.64;75.85;100511.92;1815177;79;21140;-53
2021/04/01 05:44:48;;;;;;;44.98;31.02;;;;;;;11.67;75.82;100514.11;1815023;79;21069;-53
2021/04/01 05:47:34;;;;;;;42.05;30.65;;;;;;;11.74;75.66;100521.52;1814502;79;21025;-53
2021/04/01 05:50:50;;;;;;;43.38;30.32;;;;;;;11.81;75.35;100508.85;1818205;77;26653;-53
2021/04/01 05:53:30;;;;;;;43.08;28.62;;;;;;;11.89;75.04;100511.03;1786568;77;21049;-54
2021/04/01 05:58:31;;;;;;;42.75;29.35;;;;;;;11.98;74.46;100493.42;1759567;80;20969;-53
2021/04/01 06:04:01;;;;;;;40.58;30.68;;;;;;;12.07;74.19;100502.75;1739969;81;21040;-52
2021/04/01 06:06:33;;;;;;;45.35;31.85;;;;;;;12.08;73.94;100499.44;1763335;81;21045;-53
2021/04/01 06:09:02;;;;;;;40.00;27.35;;;;;;;12.09;73.90;100499.72;1748382;81;21638;-52
2021/04/01 06:11:37;;;;;;;36.77;26.37;;;;;;;12.09;73.73;100493.65;1757148;81;21598;-54
2021/04/01 06:14:13;;;;;;;57.60;32.35;;;;;;;12.09;73.69;100489.52;1759598;81;21008;-53
2021/04/01 06:16:44;;;;;;;51.60;35.13;;;;;;;12.09;73.76;100495.03;1754619;81;21038;-51
2021/04/01 06:19:21;;;;;;;46.37;30.97;;;;;;;12.14;73.67;100485.91;1711492;82;21073;-51
2021/04/01 06:21:49;;;;;;;47.35;30.52;;;;;;;12.21;73.42;100484.23;1700906;81;21158;-52
2021/04/01 06:24:27;;;;;;;38.28;27.40;;;;;;;12.26;73.39;100485.57;1727692;81;21096;-52
2021/04/01 06:29:39;;;;;;;44.03;29.32;;;;;;;12.42;72.56;100481.64;1722507;81;21069;-52
2021/04/01 06:32:22;;;;;;;37.20;26.80;;;;;;;12.45;72.49;100489.33;1724312;81;21069;-52
2021/04/01 06:34:50;;;;;;;50.95;33.60;;;;;;;12.53;72.32;100482.41;1708163;82;21387;-53
2021/04/01 06:40:06;;;;;;;47.25;29.23;;;;;;;12.72;71.92;100482.55;1726195;81;21060;-53
2021/04/01 06:42:53;;;;;;;38.25;27.98;;;;;;;12.83;71.39;100485.23;1723602;81;21136;-53
2021/04/01 06:45:25;;;;;;;46.60;31.12;;;;;;;12.89;71.07;100497.32;1723367;81;21056;-53
2021/04/01 06:47:56;;;;;;;46.30;30.68;;;;;;;12.92;70.80;100469.73;1722653;81;21321;-52
2021/04/01 06:50:37;;;;;;;47.78;32.75;;;;;;;13.01;70.85;100480.40;1723322;81;21163;-52
2021/04/01 06:53:11;;;;;;;53.10;29.52;;;;;;;13.16;70.60;100471.73;1726148;81;21041;-53
2021/04/01 06:55:48;;;;;;;46.18;29.15;;;;;;;13.29;69.87;100477.97;1718156;81;21049;-54
2021/04/01 06:58:38;;;;;;;42.00;31.57;;;;;;;13.39;69.58;100472.91;1706142;82;21450;-52
2021/04/01 07:04:10;;;;;;;39.98;28.85;;;;;;;13.73;69.04;100465.95;1783034;78;23284;-53
2021/04/01 07:06:43;;;;;;;37.65;28.20;;;;;;;13.83;68.26;100464.45;1756829;79;21081;-52
2021/04/01 07:09:54;;;;;;;54.58;30.25;;;;;;;13.95;67.84;100464.59;1755223;79;22371;-53
2021/04/01 07:12:29;;;;;;;47.75;31.23;;;;;;;14.09;67.77;100471.56;1754763;79;21041;-53
2021/04/01 07:15:44;;;;;;;38.53;28.95;;;;;;;14.27;66.94;100463.06;1757327;79;21071;-52
2021/04/01 07:17:51;;;;;;;38.00;26.55;;;;;;;14.38;66.22;100462.37;1754214;79;21083;-55
2021/04/01 07:20:52;;;;;;;42.15;27.40;;;;;;;14.41;65.93;100463.95;1758451;79;21670;-54
2021/04/01 07:35:12;;;;;;;36.28;24.77;;;;;;;14.75;64.73;100442.20;1760694;80;21647;-53
2021/04/01 07:48:47;;;;;;;41.08;25.48;;;;;;;15.01;63.53;100426.56;1733867;81;22238;-53
2021/04/01 07:54:04;;;;;;;35.23;26.48;;;;;;;15.34;63.00;100419.61;1757181;80;21198;-53
2021/04/01 07:56:54;;;;;;;34.65;24.45;;;;;;;15.52;62.49;100428.39;1760246;80;21275;-53
2021/04/01 08:01:52;;;;;;;34.38;23.85;;;;;;;15.78;61.27;100418.19;1738505;80;22096;-54
2021/04/01 08:04:14;;;;;;;34.35;25.12;;;;;;;15.77;60.91;100426.23;1762777;80;21208;-53
2021/04/01 08:06:44;;;;;;;35.68;24.18;;;;;;;15.80;60.88;100415.14;1755644;80;21057;-52
2021/04/01 08:09:23;;;;;;;39.45;24.77;;;;;;;15.83;60.99;100399.28;1760637;80;21049;-53
2021/04/01 08:11:53;;;;;;;33.63;24.50;;;;;;;16.00;60.49;100408.34;1743646;80;21046;-53
2021/04/01 08:14:33;;;;;;;30.65;22.70;;;;;;;16.17;59.75;100400.77;1730746;80;21585;-52
2021/04/01 08:19:48;;;;;;;32.08;24.32;;;;;;;16.39;59.16;100402.19;1857103;76;22327;-53
2021/04/01 08:22:20;;;;;;;32.08;24.00;;;;;;;16.32;58.89;100400.42;1825940;77;21065;-53
2021/04/01 08:25:01;;;;;;;30.57;23.90;;;;;;;16.29;59.14;100393.28;1822318;77;21405;-53
2021/04/01 08:27:46;;;;;;;32.60;23.98;;;;;;;16.40;59.04;100387.75;1824797;77;21066;-56
2021/04/01 08:33:15;;;;;;;36.65;24.70;;;;;;;16.77;58.29;100373.27;1828973;77;21098;-55
2021/04/01 08:35:39;;;;;;;29.25;23.47;;;;;;;16.96;57.61;100377.23;1827284;77;21044;-54
2021/04/01 08:38:12;;;;;;;38.70;25.90;;;;;;;17.09;57.26;100374.15;1821167;77;21202;-53
2021/04/01 08:40:44;;;;;;;39.73;23.20;;;;;;;17.18;56.89;100373.61;1826614;76;21054;-55
2021/04/01 08:43:36;;;;;;;35.00;23.12;;;;;;;17.25;56.98;100369.80;1825998;76;21037;-52
2021/04/01 08:46:40;;;;;;;41.58;29.42;;;;;;;17.41;56.84;100364.63;1819367;76;21053;-53
2021/04/01 08:49:37;;;;;;;30.45;22.62;;;;;;;17.62;56.18;100366.26;1818786;77;21025;-54
2021/04/01 08:52:50;;;;;;;31.15;22.95;;;;;;;17.78;55.44;100360.25;1823726;77;21321;-54
2021/04/01 08:55:20;;;;;;;30.43;22.15;;;;;;;17.90;54.57;100354.89;1826279;76;21021;-54
2021/04/01 08:58:41;;;;;;;28.67;23.15;;;;;;;17.93;54.50;100348.72;1824806;76;21028;-54
2021/04/01 09:01:18;;;;;;;32.78;22.75;;;;;;;17.93;54.37;100350.66;1826334;77;20993;-53
2021/04/01 09:03:48;;;;;;;39.27;22.87;;;;;;;17.94;54.32;100341.99;1840112;76;22329;-53
2021/04/01 09:06:24;;;;;;;31.12;21.80;;;;;;;18.08;54.29;100348.80;1832461;77;21354;-54
2021/04/01 09:08:56;;;;;;;41.28;23.02;;;;;;;18.23;53.12;100346.12;1826428;76;21060;-52
2021/04/01 09:14:17;;;;;;;31.82;24.43;;;;;;;18.37;52.83;100340.95;1853970;75;22730;-54
2021/04/01 09:17:07;;;;;;;32.90;22.15;;;;;;;18.31;52.96;100342.50;1832611;77;20977;-54
2021/04/01 09:19:37;;;;;;;35.55;24.30;;;;;;;18.43;52.75;100336.84;1827116;76;21191;-54
2021/04/01 09:22:25;;;;;;;43.58;23.92;;;;;;;18.58;52.29;100332.17;1827995;77;20967;-55
2021/04/01 09:25:04;;;;;;;46.30;23.60;;;;;;;18.74;52.05;100324.70;1827951;76;21720;-54
2021/04/01 09:27:32;;;;;;;31.20;23.47;;;;;;;19.02;51.32;100325.70;1828543;76;20936;-55
2021/04/01 09:30:09;;;;;;;50.30;22.77;;;;;;;19.16;50.60;100320.72;1791596;77;20974;-54
2021/04/01 09:32:40;;;;;;;29.87;21.48;;;;;;;19.17;50.28;100314.02;1819328;77;22267;-55
2021/04/01 09:35:09;;;;;;;31.00;23.18;;;;;;;19.21;50.12;100302.45;1825738;77;20973;-52
2021/04/01 09:37:56;;;;;;;29.57;19.98;;;;;;;19.17;50.09;100301.48;1790865;77;21014;-54
2021/04/01 09:40:43;;;;;;;28.85;20.62;;;;;;;19.19;50.14;100296.97;1834710;76;21040;-56
2021/04/01 09:43:21;;;;;;;26.35;19.90;;;;;;;19.38;50.04;100293.78;1811871;77;21684;-54
2021/04/01 09:45:58;;;;;;;21.95;17.52;;;;;;;19.64;49.06;100283.86;1829738;76;21124;-55
2021/04/01 09:48:30;;;;;;;26.27;19.25;;;;;;;19.93;48.01;100289.16;1828342;76;20995;-55
2021/04/01 09:51:02;;;;;;;28.12;18.02;;;;;;;20.22;47.51;100284.09;1807217;77;21874;-55
2021/04/01 09:53:31;;;;;;;28.50;15.68;;;;;;;20.47;46.98;100293.34;1830436;77;20965;-56
2021/04/01 09:56:02;;;;;;;22.45;14.70;;;;;;;20.57;45.07;100275.34;1825382;77;20974;-57
2021/04/01 09:58:40;;;;;;;26.42;15.85;;;;;;;20.94;43.65;100281.03;1832179;77;21180;-55
2021/04/01 10:01:31;;;;;;;28.75;15.95;;;;;;;21.01;43.14;100285.45;1827067;77;20993;-55
2021/04/01 10:04:16;;;;;;;26.62;14.90;;;;;;;21.11;43.20;100281.98;1843432;77;20918;-55
2021/04/01 10:07:00;;;;;;;21.90;15.95;;;;;;;21.40;42.08;100284.52;1815886;77;20918;-55
2021/04/01 10:09:29;;;;;;;27.85;16.15;;;;;;;21.57;41.84;100285.47;1838682;77;20957;-55
2021/04/01 10:11:58;;;;;;;22.40;14.95;;;;;;;21.60;41.65;100276.38;1839723;77;21348;-52
2021/04/01 10:14:31;;;;;;;21.87;14.95;;;;;;;21.60;41.06;100267.20;1833117;77;20997;-54
2021/04/01 10:17:07;;;;;;;20.00;12.98;;;;;;;21.58;40.59;100259.16;1835405;77;21014;-53
2021/04/01 10:19:45;;;;;;;17.73;12.80;;;;;;;21.62;39.96;100258.69;1836256;77;21470;-53
2021/04/01 10:22:27;;;;;;;23.80;14.23;;;;;;;21.74;39.97;100246.06;1838452;77;20968;-55
2021/04/01 10:27:49;;;;;;;19.52;11.93;;;;;;;21.97;38.43;100246.92;1833889;77;20977;-55
2021/04/01 10:30:17;;;;;;;20.90;12.68;;;;;;;22.06;37.65;100248.17;1839502;77;20958;-56
2021/04/01 10:32:54;;;;;;;17.30;10.75;;;;;;;22.10;37.95;100233.11;1835240;76;21733;-56
2021/04/01 10:35:28;;;;;;;;;;;;;;;22.38;37.40;100223.92;1839616;77;20962;-53
2021/04/01 10:37:57;;;;;;;29.55;11.85;;;;;;;22.79;36.04;100219.56;1831510;77;21249;-54
2021/04/01 10:40:25;;;;;;;22.48;10.15;;;;;;;22.82;35.52;100237.06;1843360;76;21000;-54
2021/04/01 10:43:07;;;;;;;20.52;10.38;;;;;;;22.70;35.59;100201.55;1841078;77;20978;-54
2021/04/01 10:45:41;;;;;;;18.37;10.78;;;;;;;22.63;35.96;100205.56;1819039;77;21536;-55
2021/04/01 10:51:09;;;;;;;14.83;9.33;;;;;;;22.36;35.82;100201.10;1782776;79;22888;-55
2021/04/01 10:53:44;;;;;;;18.35;9.75;;;;;;;22.33;35.06;100188.41;1732278;79;20986;-54
2021/04/01 10:56:13;;;;;;;15.80;8.70;;;;;;;22.29;35.22;100188.86;1757044;79;21401;-54
2021/04/01 10:58:54;;;;;;;20.17;8.78;;;;;;;22.49;35.34;100184.22;1757362;79;21001;-53
2021/04/01 11:01:38;;;;;;;24.23;9.53;;;;;;;22.65;34.90;100184.21;1760745;79;20997;-54
2021/04/01 11:04:13;;;;;;;13.72;8.98;;;;;;;22.80;34.49;100171.39;1773132;79;20974;-55
2021/04/01 11:06:45;;;;;;;11.53;7.72;;;;;;;23.01;33.56;100170.50;1769543;80;21017;-56
2021/04/01 11:09:18;;;;;;;11.80;7.53;;;;;;;23.23;32.14;100164.02;1772312;79;21364;-55
2021/04/01 11:14:24;;;;;;;12.20;7.80;;;;;;;23.46;30.92;100160.73;1768721;80;21136;-55
2021/04/01 11:16:56;;;;;;;11.80;8.58;;;;;;;23.29;31.13;100162.54;1764163;80;21421;-56
2021/04/01 11:19:27;;;;;;;12.25;8.40;;;;;;;23.21;31.11;100161.58;1763814;79;20973;-54
2021/04/01 11:21:54;;;;;;;10.72;7.45;;;;;;;23.41;31.14;100151.20;1767330;79;22909;-56
2021/04/01 11:24:36;;;;;;;15.90;8.33;;;;;;;23.61;30.93;100147.82;1740608;80;20997;-56
2021/04/01 11:27:17;;;;;;;12.88;7.40;;;;;;;23.67;31.13;100143.33;1766320;80;21006;-55
2021/04/01 11:29:59;;;;;;;15.75;8.23;;;;;;;23.84;30.40;100153.28;1763205;79;20966;-55
2021/04/01 11:32:30;;;;;;;15.40;7.35;;;;;;;23.66;30.63;100129.88;1763453;79;20977;-55
2021/04/01 11:35:01;;;;;;;18.87;8.35;;;;;;;23.51;30.92;100134.41;1761937;80;21189;-56
2021/04/01 11:37:34;;;;;;;18.73;8.03;;;;;;;23.50;31.42;100130.56;1765415;79;21613;-56
2021/04/01 11:40:09;;;;;;;13.45;7.45;;;;;;;23.74;31.32;100116.84;1760140;80;21568;-56
2021/04/01 11:42:39;;;;;;;14.58;7.62;;;;;;;23.96;30.33;100115.27;1767005;80;21886;-56
2021/04/01 11:45:10;;;;;;;13.78;6.90;;;;;;;24.06;29.64;100116.66;1726810;80;20986;-56
2021/04/01 11:47:39;;;;;;;12.23;7.00;;;;;;;23.87;29.23;100116.11;1770389;80;21367;-56
2021/04/01 11:50:08;;;;;;;17.00;7.30;;;;;;;23.72;29.76;100110.20;1754564;80;21023;-54
2021/04/01 11:52:35;;;;;;;14.15;7.42;;;;;;;23.67;30.29;100121.70;1753959;81;21101;-54
2021/04/01 11:55:09;;;;;;;15.43;7.45;;;;;;;23.36;30.90;100105.25;1747734;80;20965;-55
2021/04/01 11:57:48;;;;;;;14.55;6.87;;;;;;;23.19;31.00;100100.92;1752323;81;21467;-55
2021/04/01 12:03:32;;;;;;;12.80;7.42;;;;;;;23.51;30.57;100102.17;1848822;76;22916;-56
2021/04/01 12:05:53;;;;;;;11.57;6.97;;;;;;;23.75;30.13;100090.40;1782398;78;21146;-55
2021/04/01 12:08:22;;;;;;;14.38;6.95;;;;;;;24.06;29.65;100082.38;1737707;79;21402;-55
2021/04/01 12:10:56;;;;;;;12.60;5.90;;;;;;;24.45;28.94;100078.62;1766641;78;21343;-55
2021/04/01 12:13:28;;;;;;;13.72;7.55;;;;;;;24.66;28.49;100088.84;1775496;79;20972;-55
2021/04/01 12:15:58;;;;;;;11.88;6.92;;;;;;;24.59;28.58;100083.08;1773766;79;21652;-56
2021/04/01 12:18:26;;;;;;;11.50;6.30;;;;;;;24.36;28.49;100067.66;1775980;79;21375;-56
2021/04/01 12:21:00;;;;;;;12.10;7.62;;;;;;;24.36;28.72;100060.64;1748670;79;21288;-55
2021/04/01 12:23:30;;;;;;;12.18;6.47;;;;;;;24.54;28.29;100065.75;1754629;80;21134;-55
2021/04/01 12:26:03;;;;;;;31.37;7.47;;;;;;;24.54;28.93;100042.69;1759705;78;21029;-56
2021/04/01 12:28:31;;;;;;;19.77;8.65;;;;;;;24.88;28.67;100048.42;1765965;79;21646;-55
2021/04/01 12:30:59;;;;;;;12.50;6.97;;;;;;;25.26;28.00;100062.55;1774163;80;20976;-54
2021/04/01 12:33:28;;;;;;;20.02;7.83;;;;;;;25.19;27.92;100047.22;1752335;80;22131;-54
2021/04/01 12:36:00;;;;;;;22.65;8.15;;;;;;;25.03;27.99;100049.41;1765312;79;21019;-56
2021/04/01 12:38:46;;;;;;;10.18;6.47;;;;;;;24.78;28.02;100040.06;1785550;79;20945;-55
2021/04/01 12:41:28;;;;;;;12.88;6.85;;;;;;;24.56;27.69;100026.86;1768090;79;21560;-57
2021/04/01 12:43:57;;;;;;;10.35;6.58;;;;;;;24.31;28.23;100036.52;1777490;79;20997;-56
2021/04/01 12:46:40;;;;;;;14.93;7.33;;;;;;;24.26;28.48;100037.43;1779272;79;22274;-56
2021/04/01 12:49:16;;;;;;;14.73;7.12;;;;;;;23.95;29.03;100023.89;1772741;79;21133;-55
2021/04/01 12:51:48;;;;;;;11.35;6.67;;;;;;;23.83;29.33;100020.66;1767630;79;21035;-55
2021/04/01 12:54:19;;;;;;;13.62;7.58;;;;;;;23.97;29.19;100013.92;1773403;79;21028;-57
2021/04/01 12:56:54;;;;;;;12.25;6.65;;;;;;;24.31;28.70;100007.05;1766341;79;20954;-56